sensor_id;sensor_type;location;lat;lon;timestamp;pressure;altitude;pressure_sealevel;temperature;humidity
24558;BME280;12726;49.148;8.582;2022-09-09T00:02:37;99979.53;;;15.04;99.05
24558;BME280;12726;49.148;8.582;2022-09-09T00:05:30;99977.13;;;15.07;99.10
24558;BME280;12726;49.148;8.582;2022-09-09T00:08:20;99979.34;;;15.10;98.42
24558;BME280;12726;49.148;8.582;2022-09-09T00:11:11;99988.28;;;15.33;97.17
24558;BME280;12726;49.148;8.582;2022-09-09T00:13:59;99977.25;;;15.17;96.62
24558;BME280;12726;49.148;8.582;2022-09-09T00:16:52;99967.63;;;15.05;98.53
24558;BME280;12726;49.148;8.582;2022-09-09T00:19:46;99979.34;;;15.10;98.56
24558;BME280;12726;49.148;8.582;2022-09-09T00:22:35;99987.13;;;15.07;99.21
24558;BME280;12726;49.148;8.582;2022-09-09T00:25:28;99968.63;;;14.99;99.67
24558;BME280;12726;49.148;8.582;2022-09-09T00:28:20;99979.13;;;14.95;100.00
24558;BME280;12726;49.148;8.582;2022-09-09T00:31:12;99982.97;;;14.99;100.00
24558;BME280;12726;49.148;8.582;2022-09-09T00:34:03;99982.66;;;14.96;100.00
24558;BME280;12726;49.148;8.582;2022-09-09T00:36:52;99964.38;;;14.86;100.00
24558;BME280;12726;49.148;8.582;2022-09-09T00:39:41;99986.38;;;14.89;100.00
24558;BME280;12726;49.148;8.582;2022-09-09T00:42:34;99980.16;;;14.89;100.00
24558;BME280;12726;49.148;8.582;2022-09-09T00:45:36;99977.69;;;14.87;100.00
24558;BME280;12726;49.148;8.582;2022-09-09T00:48:33;99982.47;;;14.80;100.00
24558;BME280;12726;49.148;8.582;2022-09-09T00:51:26;99987.88;;;14.80;99.23
24558;BME280;12726;49.148;8.582;2022-09-09T00:54:30;99990.78;;;14.74;98.28
24558;BME280;12726;49.148;8.582;2022-09-09T00:57:29;99976.91;;;14.70;97.68
24558;BME280;12726;49.148;8.582;2022-09-09T01:00:23;99987.47;;;14.72;97.93
24558;BME280;12726;49.148;8.582;2022-09-09T01:03:21;99987.75;;;14.70;97.98
24558;BME280;12726;49.148;8.582;2022-09-09T01:06:15;99987.25;;;14.73;98.65
24558;BME280;12726;49.148;8.582;2022-09-09T01:09:11;99993.53;;;14.79;98.90
24558;BME280;12726;49.148;8.582;2022-09-09T01:12:03;99986.31;;;14.84;99.24
24558;BME280;12726;49.148;8.582;2022-09-09T01:15:00;99982.03;;;14.88;99.61
24558;BME280;12726;49.148;8.582;2022-09-09T01:17:52;99973.41;;;14.92;98.97
24558;BME280;12726;49.148;8.582;2022-09-09T01:20:45;99968.22;;;14.90;97.77
24558;BME280;12726;49.148;8.582;2022-09-09T01:23:41;99981.66;;;15.02;97.98
24558;BME280;12726;49.148;8.582;2022-09-09T01:26:32;99995.16;;;14.97;98.08
24558;BME280;12726;49.148;8.582;2022-09-09T01:29:21;100000.25;;;14.93;99.70
24558;BME280;12726;49.148;8.582;2022-09-09T01:32:38;100006.06;;;15.02;100.00
24558;BME280;12726;49.148;8.582;2022-09-09T01:35:32;99997.97;;;15.07;100.00
24558;BME280;12726;49.148;8.582;2022-09-09T01:38:22;100000.44;;;15.08;100.00
24558;BME280;12726;49.148;8.582;2022-09-09T01:41:08;100008.63;;;15.13;99.91
24558;BME280;12726;49.148;8.582;2022-09-09T01:43:56;99995.41;;;15.17;99.03
24558;BME280;12726;49.148;8.582;2022-09-09T01:46:41;100006.94;;;15.29;98.65
24558;BME280;12726;49.148;8.582;2022-09-09T01:49:27;100003.72;;;15.32;97.87
24558;BME280;12726;49.148;8.582;2022-09-09T01:52:12;100009.84;;;15.44;97.00
24558;BME280;12726;49.148;8.582;2022-09-09T01:54:58;100000.78;;;15.55;95.53
24558;BME280;12726;49.148;8.582;2022-09-09T01:57:49;99999.50;;;15.63;94.14
24558;BME280;12726;49.148;8.582;2022-09-09T02:00:42;100008.56;;;15.74;94.05
24558;BME280;12726;49.148;8.582;2022-09-09T02:03:31;99992.31;;;15.79;92.96
24558;BME280;12726;49.148;8.582;2022-09-09T02:06:25;100001.03;;;15.81;93.61
24558;BME280;12726;49.148;8.582;2022-09-09T02:09:12;100000.47;;;15.79;94.40
24558;BME280;12726;49.148;8.582;2022-09-09T02:12:05;100003.91;;;15.69;95.79
24558;BME280;12726;49.148;8.582;2022-09-09T02:14:56;100006.00;;;15.62;96.85
24558;BME280;12726;49.148;8.582;2022-09-09T02:17:46;100003.50;;;15.55;97.93
24558;BME280;12726;49.148;8.582;2022-09-09T02:20:35;99992.00;;;15.48;98.43
24558;BME280;12726;49.148;8.582;2022-09-09T02:23:22;99972.56;;;15.35;97.04
24558;BME280;12726;49.148;8.582;2022-09-09T02:26:09;99979.28;;;15.27;97.36
24558;BME280;12726;49.148;8.582;2022-09-09T02:28:59;99975.41;;;15.23;97.89
24558;BME280;12726;49.148;8.582;2022-09-09T02:31:47;99977.81;;;15.19;98.57
24558;BME280;12726;49.148;8.582;2022-09-09T02:34:40;99977.53;;;15.21;98.99
24558;BME280;12726;49.148;8.582;2022-09-09T02:37:31;99976.00;;;15.25;98.26
24558;BME280;12726;49.148;8.582;2022-09-09T02:40:17;99971.88;;;15.22;98.76
24558;BME280;12726;49.148;8.582;2022-09-09T02:43:03;99972.41;;;15.19;98.95
24558;BME280;12726;49.148;8.582;2022-09-09T02:45:53;99975.59;;;15.16;99.29
24558;BME280;12726;49.148;8.582;2022-09-09T02:48:48;99958.13;;;15.07;99.83
24558;BME280;12726;49.148;8.582;2022-09-09T02:51:42;99960.34;;;15.10;99.76
24558;BME280;12726;49.148;8.582;2022-09-09T02:54:31;99957.06;;;15.08;99.47
24558;BME280;12726;49.148;8.582;2022-09-09T02:57:19;99968.28;;;15.17;98.24
24558;BME280;12726;49.148;8.582;2022-09-09T03:00:07;99971.78;;;15.12;98.62
24558;BME280;12726;49.148;8.582;2022-09-09T03:02:54;99971.78;;;15.12;98.42
24558;BME280;12726;49.148;8.582;2022-09-09T03:05:39;99976.56;;;15.05;99.12
24558;BME280;12726;49.148;8.582;2022-09-09T03:08:26;99981.06;;;15.00;99.81
24558;BME280;12726;49.148;8.582;2022-09-09T03:11:12;99970.25;;;15.00;100.00
24558;BME280;12726;49.148;8.582;2022-09-09T03:13:57;99962.94;;;15.00;100.00
24558;BME280;12726;49.148;8.582;2022-09-09T03:16:43;99977.06;;;15.02;100.00
24558;BME280;12726;49.148;8.582;2022-09-09T03:19:28;99966.22;;;15.02;100.00
24558;BME280;12726;49.148;8.582;2022-09-09T03:22:14;99963.19;;;14.99;100.00
24558;BME280;12726;49.148;8.582;2022-09-09T03:25:01;99962.94;;;15.00;100.00
24558;BME280;12726;49.148;8.582;2022-09-09T03:27:47;99963.19;;;14.99;100.00
24558;BME280;12726;49.148;8.582;2022-09-09T03:30:32;99969.69;;;14.98;100.00
24558;BME280;12726;49.148;8.582;2022-09-09T03:33:17;99951.63;;;14.86;100.00
24558;BME280;12726;49.148;8.582;2022-09-09T03:36:04;99979.53;;;15.04;100.00
24558;BME280;12726;49.148;8.582;2022-09-09T03:38:49;99979.78;;;15.02;100.00
24558;BME280;12726;49.148;8.582;2022-09-09T03:41:36;99976.19;;;14.97;100.00
24558;BME280;12726;49.148;8.582;2022-09-09T03:44:21;99968.53;;;14.94;100.00
24558;BME280;12726;49.148;8.582;2022-09-09T03:47:07;99975.31;;;14.91;100.00
24558;BME280;12726;49.148;8.582;2022-09-09T03:49:52;99969.06;;;14.91;100.00
24558;BME280;12726;49.148;8.582;2022-09-09T03:52:39;99976.19;;;14.97;100.00
24558;BME280;12726;49.148;8.582;2022-09-09T03:55:25;99980.09;;;15.06;99.05
24558;BME280;12726;49.148;8.582;2022-09-09T03:58:13;99975.16;;;15.03;98.53
24558;BME280;12726;49.148;8.582;2022-09-09T04:01:00;99975.16;;;15.03;98.43
24558;BME280;12726;49.148;8.582;2022-09-09T04:03:45;99970.31;;;15.05;98.38
24558;BME280;12726;49.148;8.582;2022-09-09T04:06:31;99969.69;;;14.98;98.49
24558;BME280;12726;49.148;8.582;2022-09-09T04:09:16;99962.66;;;14.80;99.03
24558;BME280;12726;49.148;8.582;2022-09-09T04:12:02;99980.16;;;14.89;99.37
24558;BME280;12726;49.148;8.582;2022-09-09T04:14:49;99979.81;;;14.85;99.88
24558;BME280;12726;49.148;8.582;2022-09-09T04:17:35;99987.63;;;14.82;99.82
24558;BME280;12726;49.148;8.582;2022-09-09T04:20:20;99985.50;;;14.84;99.89
24558;BME280;12726;49.148;8.582;2022-09-09T04:23:05;99988.13;;;14.79;99.88
24558;BME280;12726;49.148;8.582;2022-09-09T04:25:53;99992.47;;;14.80;100.00
24558;BME280;12726;49.148;8.582;2022-09-09T04:28:39;99993.31;;;14.80;100.00
24558;BME280;12726;49.148;8.582;2022-09-09T04:31:26;99997.47;;;14.88;99.84
24558;BME280;12726;49.148;8.582;2022-09-09T04:34:11;100012.09;;;14.87;99.29
24558;BME280;12726;49.148;8.582;2022-09-09T04:36:57;99999.88;;;14.84;99.70
24558;BME280;12726;49.148;8.582;2022-09-09T04:39:44;100007.25;;;14.89;99.88
24558;BME280;12726;49.148;8.582;2022-09-09T04:42:35;100009.72;;;14.91;99.81
24558;BME280;12726;49.148;8.582;2022-09-09T04:45:20;100007.31;;;14.94;99.38
24558;BME280;12726;49.148;8.582;2022-09-09T04:48:08;100012.47;;;14.96;99.03
24558;BME280;12726;49.148;8.582;2022-09-09T04:50:56;100014.38;;;14.95;98.54
24558;BME280;12726;49.148;8.582;2022-09-09T04:53:41;100017.41;;;14.99;98.60
24558;BME280;12726;49.148;8.582;2022-09-09T04:56:34;100018.28;;;15.04;97.74
24558;BME280;12726;49.148;8.582;2022-09-09T04:59:20;100019.13;;;15.05;96.03
24558;BME280;12726;49.148;8.582;2022-09-09T05:02:06;100021.06;;;15.09;95.15
24558;BME280;12726;49.148;8.582;2022-09-09T05:04:53;100024.03;;;15.08;95.53
24558;BME280;12726;49.148;8.582;2022-09-09T05:07:39;100014.81;;;15.09;94.28
24558;BME280;12726;49.148;8.582;2022-09-09T05:10:25;100028.53;;;15.19;93.71
24558;BME280;12726;49.148;8.582;2022-09-09T05:13:10;100028.81;;;15.22;93.33
24558;BME280;12726;49.148;8.582;2022-09-09T05:15:56;100029.47;;;15.29;92.52
24558;BME280;12726;49.148;8.582;2022-09-09T05:18:41;100019.25;;;15.37;92.16
24558;BME280;12726;49.148;8.582;2022-09-09T05:21:29;100031.03;;;15.47;91.66
24558;BME280;12726;49.148;8.582;2022-09-09T05:24:15;100032.81;;;15.58;90.98
24558;BME280;12726;49.148;8.582;2022-09-09T05:27:00;100037.22;;;15.64;89.87
24558;BME280;12726;49.148;8.582;2022-09-09T05:29:46;100032.16;;;15.73;89.74
24558;BME280;12726;49.148;8.582;2022-09-09T05:32:32;100040.25;;;15.68;89.05
24558;BME280;12726;49.148;8.582;2022-09-09T05:35:18;100042.56;;;15.81;88.61
24558;BME280;12726;49.148;8.582;2022-09-09T05:38:06;100034.72;;;15.85;88.20
24558;BME280;12726;49.148;8.582;2022-09-09T05:40:52;100039.69;;;15.93;88.20
24558;BME280;12726;49.148;8.582;2022-09-09T05:43:38;100045.19;;;15.98;87.73
24558;BME280;12726;49.148;8.582;2022-09-09T05:46:24;100040.63;;;16.03;86.85
24558;BME280;12726;49.148;8.582;2022-09-09T05:49:10;100044.72;;;16.06;86.65
24558;BME280;12726;49.148;8.582;2022-09-09T05:51:55;100050.50;;;16.15;86.62
24558;BME280;12726;49.148;8.582;2022-09-09T05:54:42;100043.78;;;16.22;86.46
24558;BME280;12726;49.148;8.582;2022-09-09T05:57:28;100041.06;;;16.22;86.65
24558;BME280;12726;49.148;8.582;2022-09-09T06:00:14;100045.00;;;16.36;85.36
24558;BME280;12726;49.148;8.582;2022-09-09T06:03:00;100048.28;;;16.38;85.54
24558;BME280;12726;49.148;8.582;2022-09-09T06:05:45;100038.97;;;16.34;85.50
24558;BME280;12726;49.148;8.582;2022-09-09T06:08:31;100043.06;;;16.32;85.09
24558;BME280;12726;49.148;8.582;2022-09-09T06:11:20;100043.72;;;16.49;84.94
24558;BME280;12726;49.148;8.582;2022-09-09T06:14:06;100042.78;;;16.60;83.87
24558;BME280;12726;49.148;8.582;2022-09-09T06:16:51;100046.88;;;17.05;82.63
24558;BME280;12726;49.148;8.582;2022-09-09T06:19:37;100047.13;;;17.60;80.40
24558;BME280;12726;49.148;8.582;2022-09-09T06:22:23;100055.41;;;18.06;76.62
24558;BME280;12726;49.148;8.582;2022-09-09T06:25:08;100060.84;;;17.96;76.74
24558;BME280;12726;49.148;8.582;2022-09-09T06:27:56;100065.72;;;17.84;78.12
24558;BME280;12726;49.148;8.582;2022-09-09T06:30:41;100054.00;;;17.78;77.98
24558;BME280;12726;49.148;8.582;2022-09-09T06:33:30;100056.16;;;17.76;77.37
24558;BME280;12726;49.148;8.582;2022-09-09T06:36:17;100047.47;;;17.74;78.30
24558;BME280;12726;49.148;8.582;2022-09-09T06:39:03;100056.97;;;17.77;78.23
24558;BME280;12726;49.148;8.582;2022-09-09T06:41:49;100064.38;;;17.86;77.15
24558;BME280;12726;49.148;8.582;2022-09-09T06:44:38;100057.28;;;17.85;76.83
24558;BME280;12726;49.148;8.582;2022-09-09T06:47:24;100063.03;;;17.89;76.88
24558;BME280;12726;49.148;8.582;2022-09-09T06:50:11;100055.63;;;17.84;77.93
24558;BME280;12726;49.148;8.582;2022-09-09T06:52:57;100062.19;;;17.88;78.40
24558;BME280;12726;49.148;8.582;2022-09-09T06:55:42;100055.38;;;17.91;78.46
24558;BME280;12726;49.148;8.582;2022-09-09T06:58:29;100060.31;;;17.99;77.60
24558;BME280;12726;49.148;8.582;2022-09-09T07:01:17;100056.22;;;18.02;77.49
24558;BME280;12726;49.148;8.582;2022-09-09T07:04:04;100057.66;;;18.39;75.76
24558;BME280;12726;49.148;8.582;2022-09-09T07:06:52;100054.63;;;18.51;75.28
24558;BME280;12726;49.148;8.582;2022-09-09T07:09:37;100063.63;;;18.77;75.09
24558;BME280;12726;49.148;8.582;2022-09-09T07:12:24;100060.19;;;19.46;71.72
24558;BME280;12726;49.148;8.582;2022-09-09T07:15:09;100063.72;;;19.57;71.38
24558;BME280;12726;49.148;8.582;2022-09-09T07:18:00;100056.91;;;19.54;70.34
24558;BME280;12726;49.148;8.582;2022-09-09T07:20:52;100056.63;;;19.55;70.22
24558;BME280;12726;49.148;8.582;2022-09-09T07:23:38;100067.31;;;19.42;68.53
24558;BME280;12726;49.148;8.582;2022-09-09T07:26:25;100061.25;;;19.60;69.05
24558;BME280;12726;49.148;8.582;2022-09-09T07:29:11;100060.56;;;19.83;69.36
24558;BME280;12726;49.148;8.582;2022-09-09T07:31:58;100069.63;;;20.91;64.06
24558;BME280;12726;49.148;8.582;2022-09-09T07:34:45;100060.91;;;22.03;59.62
24558;BME280;12726;49.148;8.582;2022-09-09T07:37:30;100059.88;;;22.36;57.99
24558;BME280;12726;49.148;8.582;2022-09-09T07:40:16;100065.41;;;22.82;55.81
24558;BME280;12726;49.148;8.582;2022-09-09T07:43:01;100066.63;;;22.06;59.01
24558;BME280;12726;49.148;8.582;2022-09-09T07:45:47;100068.09;;;21.56;60.76
24558;BME280;12726;49.148;8.582;2022-09-09T07:48:34;100078.47;;;20.83;62.41
24558;BME280;12726;49.148;8.582;2022-09-09T07:51:23;100071.59;;;20.12;63.27
24558;BME280;12726;49.148;8.582;2022-09-09T07:54:11;100071.56;;;19.73;65.34
24558;BME280;12726;49.148;8.582;2022-09-09T07:56:57;100072.19;;;19.55;65.57
24558;BME280;12726;49.148;8.582;2022-09-09T07:59:42;100071.41;;;20.77;62.63
24558;BME280;12726;49.148;8.582;2022-09-09T08:02:29;100063.63;;;21.84;58.57
24558;BME280;12726;49.148;8.582;2022-09-09T08:05:14;100066.50;;;22.16;57.31
24558;BME280;12726;49.148;8.582;2022-09-09T08:08:02;100067.50;;;22.72;54.88
24558;BME280;12726;49.148;8.582;2022-09-09T08:10:48;100082.47;;;23.12;55.65
24558;BME280;12726;49.148;8.582;2022-09-09T08:13:34;100059.03;;;23.96;53.84
24558;BME280;12726;49.148;8.582;2022-09-09T08:16:22;100072.38;;;24.61;50.84
24558;BME280;12726;49.148;8.582;2022-09-09T08:19:08;100074.72;;;24.32;50.48
24558;BME280;12726;49.148;8.582;2022-09-09T08:21:54;100075.69;;;24.27;50.52
24558;BME280;12726;49.148;8.582;2022-09-09T08:24:41;100073.97;;;22.30;54.78
24558;BME280;12726;49.148;8.582;2022-09-09T08:27:26;100081.34;;;21.92;57.48
24558;BME280;12726;49.148;8.582;2022-09-09T08:30:12;100084.28;;;21.76;58.26
24558;BME280;12726;49.148;8.582;2022-09-09T08:32:58;100088.78;;;21.20;59.68
24558;BME280;12726;49.148;8.582;2022-09-09T08:35:50;100106.06;;;21.15;60.47
24558;BME280;12726;49.148;8.582;2022-09-09T08:38:36;100105.94;;;20.73;62.66
24558;BME280;12726;49.148;8.582;2022-09-09T08:41:37;100109.22;;;20.36;67.92
24558;BME280;12726;49.148;8.582;2022-09-09T08:44:32;100104.13;;;20.14;72.97
24558;BME280;12726;49.148;8.582;2022-09-09T08:47:29;100088.44;;;19.85;72.00
24558;BME280;12726;49.148;8.582;2022-09-09T08:50:22;100097.13;;;21.04;69.23
24558;BME280;12726;49.148;8.582;2022-09-09T08:53:11;100083.16;;;22.71;61.23
24558;BME280;12726;49.148;8.582;2022-09-09T08:56:04;100091.47;;;23.72;56.72
24558;BME280;12726;49.148;8.582;2022-09-09T08:58:56;100086.50;;;24.46;60.09
24558;BME280;12726;49.148;8.582;2022-09-09T09:01:47;100095.31;;;24.34;55.13
24558;BME280;12726;49.148;8.582;2022-09-09T09:04:45;100094.28;;;24.44;53.85
24558;BME280;12726;49.148;8.582;2022-09-09T09:07:44;100099.25;;;24.06;55.92
24558;BME280;12726;49.148;8.582;2022-09-09T09:10:42;100093.53;;;24.02;53.80
24558;BME280;12726;49.148;8.582;2022-09-09T09:13:35;100090.00;;;24.82;52.91
24558;BME280;12726;49.148;8.582;2022-09-09T09:16:32;100091.28;;;24.04;51.31
24558;BME280;12726;49.148;8.582;2022-09-09T09:19:20;100077.91;;;25.23;52.34
24558;BME280;12726;49.148;8.582;2022-09-09T09:22:15;100083.34;;;25.85;48.89
24558;BME280;12726;49.148;8.582;2022-09-09T09:25:08;100079.16;;;24.86;49.58
24558;BME280;12726;49.148;8.582;2022-09-09T09:27:59;100070.16;;;23.91;50.37
24558;BME280;12726;49.148;8.582;2022-09-09T09:30:50;100089.53;;;23.72;50.79
24558;BME280;12726;49.148;8.582;2022-09-09T09:33:45;100085.38;;;24.11;51.80
24558;BME280;12726;49.148;8.582;2022-09-09T09:36:39;100080.25;;;24.18;51.70
24558;BME280;12726;49.148;8.582;2022-09-09T09:39:28;100076.53;;;24.00;51.29
24558;BME280;12726;49.148;8.582;2022-09-09T09:42:16;100073.84;;;24.09;49.25
24558;BME280;12726;49.148;8.582;2022-09-09T09:45:08;100086.56;;;24.32;49.07
24558;BME280;12726;49.148;8.582;2022-09-09T09:47:58;100096.66;;;23.60;50.50
24558;BME280;12726;49.148;8.582;2022-09-09T09:50:50;100089.72;;;23.76;51.19
24558;BME280;12726;49.148;8.582;2022-09-09T09:53:37;100089.34;;;24.05;50.36
24558;BME280;12726;49.148;8.582;2022-09-09T09:56:27;100090.75;;;24.30;47.76
24558;BME280;12726;49.148;8.582;2022-09-09T09:59:32;100093.34;;;23.17;49.60
24558;BME280;12726;49.148;8.582;2022-09-09T10:02:20;100087.28;;;22.17;53.33
24558;BME280;12726;49.148;8.582;2022-09-09T10:05:13;100096.56;;;22.21;54.28
24558;BME280;12726;49.148;8.582;2022-09-09T10:08:08;100094.13;;;22.01;55.70
24558;BME280;12726;49.148;8.582;2022-09-09T10:11:15;100086.69;;;22.39;56.42
24558;BME280;12726;49.148;8.582;2022-09-09T10:14:13;100090.22;;;22.77;55.19
24558;BME280;12726;49.148;8.582;2022-09-09T10:17:12;100086.84;;;24.31;52.93
24558;BME280;12726;49.148;8.582;2022-09-09T10:20:17;100082.53;;;25.05;50.10
24558;BME280;12726;49.148;8.582;2022-09-09T10:23:22;100077.75;;;25.59;47.46
24558;BME280;12726;49.148;8.582;2022-09-09T10:26:19;100074.81;;;25.55;46.61
24558;BME280;12726;49.148;8.582;2022-09-09T10:29:24;100074.72;;;25.38;49.52
24558;BME280;12726;49.148;8.582;2022-09-09T10:32:30;100070.66;;;24.96;48.03
24558;BME280;12726;49.148;8.582;2022-09-09T10:35:25;100067.09;;;25.83;48.43
24558;BME280;12726;49.148;8.582;2022-09-09T10:38:16;100063.25;;;25.93;45.74
24558;BME280;12726;49.148;8.582;2022-09-09T10:41:13;100068.94;;;25.09;44.97
24558;BME280;12726;49.148;8.582;2022-09-09T10:44:11;100056.97;;;24.02;45.80
24558;BME280;12726;49.148;8.582;2022-09-09T10:47:13;100061.56;;;24.42;45.62
24558;BME280;12726;49.148;8.582;2022-09-09T10:50:07;100060.81;;;23.37;48.53
24558;BME280;12726;49.148;8.582;2022-09-09T10:53:01;100057.84;;;24.47;47.46
24558;BME280;12726;49.148;8.582;2022-09-09T10:55:52;100060.28;;;24.93;46.41
24558;BME280;12726;49.148;8.582;2022-09-09T10:58:42;100061.00;;;25.47;43.93
24558;BME280;12726;49.148;8.582;2022-09-09T11:01:34;100058.25;;;25.55;42.89
24558;BME280;12726;49.148;8.582;2022-09-09T11:04:23;100062.59;;;25.08;43.38
24558;BME280;12726;49.148;8.582;2022-09-09T11:07:14;100068.19;;;24.64;44.56
24558;BME280;12726;49.148;8.582;2022-09-09T11:10:12;100067.34;;;24.05;46.24
24558;BME280;12726;49.148;8.582;2022-09-09T11:13:04;100071.75;;;22.96;48.27
24558;BME280;12726;49.148;8.582;2022-09-09T11:15:54;100059.47;;;23.76;49.41
24558;BME280;12726;49.148;8.582;2022-09-09T11:18:43;100060.09;;;24.09;48.17
24558;BME280;12726;49.148;8.582;2022-09-09T11:21:35;100053.81;;;24.08;44.00
24558;BME280;12726;49.148;8.582;2022-09-09T11:24:27;100057.63;;;23.17;46.18
24558;BME280;12726;49.148;8.582;2022-09-09T11:27:15;100052.97;;;23.45;46.57
24558;BME280;12726;49.148;8.582;2022-09-09T11:30:21;100047.66;;;23.75;45.57
24558;BME280;12726;49.148;8.582;2022-09-09T11:36:46;100044.78;;;24.16;44.72
24558;BME280;12726;49.148;8.582;2022-09-09T11:39:57;100052.28;;;24.02;44.30
24558;BME280;12726;49.148;8.582;2022-09-09T11:42:46;100038.84;;;23.65;46.65
24558;BME280;12726;49.148;8.582;2022-09-09T11:45:36;100039.47;;;23.48;45.44
24558;BME280;12726;49.148;8.582;2022-09-09T11:48:23;100016.91;;;24.09;46.23
24558;BME280;12726;49.148;8.582;2022-09-09T11:51:12;100020.78;;;24.22;44.07
24558;BME280;12726;49.148;8.582;2022-09-09T11:53:59;100015.47;;;24.26;43.67
24558;BME280;12726;49.148;8.582;2022-09-09T11:56:47;100011.16;;;23.97;43.90
24558;BME280;12726;49.148;8.582;2022-09-09T11:59:33;100009.34;;;24.51;45.69
24558;BME280;12726;49.148;8.582;2022-09-09T12:02:23;100002.94;;;24.64;45.50
24558;BME280;12726;49.148;8.582;2022-09-09T12:05:12;100011.75;;;24.08;45.56
24558;BME280;12726;49.148;8.582;2022-09-09T12:08:00;100010.31;;;23.74;46.40
24558;BME280;12726;49.148;8.582;2022-09-09T12:10:53;100001.59;;;23.04;48.09
24558;BME280;12726;49.148;8.582;2022-09-09T12:13:39;100009.34;;;23.16;47.87
24558;BME280;12726;49.148;8.582;2022-09-09T12:16:32;100002.81;;;23.39;47.28
24558;BME280;12726;49.148;8.582;2022-09-09T12:19:21;100009.91;;;23.67;48.34
24558;BME280;12726;49.148;8.582;2022-09-09T12:22:13;100015.06;;;23.83;45.74
24558;BME280;12726;49.148;8.582;2022-09-09T12:25:12;100000.09;;;24.11;46.30
24558;BME280;12726;49.148;8.582;2022-09-09T12:28:05;100002.38;;;24.31;46.18
24558;BME280;12726;49.148;8.582;2022-09-09T12:30:58;100005.22;;;24.71;45.33
24558;BME280;12726;49.148;8.582;2022-09-09T12:33:46;100004.88;;;23.83;45.52
24558;BME280;12726;49.148;8.582;2022-09-09T12:36:33;100023.66;;;23.26;46.06
24558;BME280;12726;49.148;8.582;2022-09-09T12:39:29;100031.59;;;22.68;48.10
24558;BME280;12726;49.148;8.582;2022-09-09T12:42:20;100028.28;;;22.39;51.55
24558;BME280;12726;49.148;8.582;2022-09-09T12:45:16;100039.91;;;21.74;56.56
24558;BME280;12726;49.148;8.582;2022-09-09T12:48:04;100040.50;;;21.53;59.11
24558;BME280;12726;49.148;8.582;2022-09-09T12:50:51;100039.41;;;21.30;60.70
24558;BME280;12726;49.148;8.582;2022-09-09T12:53:39;100025.72;;;20.77;62.67
24558;BME280;12726;49.148;8.582;2022-09-09T12:56:27;100038.47;;;20.87;64.28
24558;BME280;12726;49.148;8.582;2022-09-09T12:59:22;100051.81;;;20.64;65.47
24558;BME280;12726;49.148;8.582;2022-09-09T13:02:18;100045.72;;;20.44;67.34
24558;BME280;12726;49.148;8.582;2022-09-09T13:05:14;100040.41;;;20.18;67.64
24558;BME280;12726;49.148;8.582;2022-09-09T13:08:01;100044.81;;;20.14;68.05
24558;BME280;12726;49.148;8.582;2022-09-09T13:10:50;100045.47;;;20.01;70.94
24558;BME280;12726;49.148;8.582;2022-09-09T13:13:40;100039.22;;;19.96;71.04
24558;BME280;12726;49.148;8.582;2022-09-09T13:16:28;100055.66;;;19.85;72.37
24558;BME280;12726;49.148;8.582;2022-09-09T13:19:16;100062.59;;;19.68;74.18
24558;BME280;12726;49.148;8.582;2022-09-09T13:22:11;100045.75;;;19.35;69.56
24558;BME280;12726;49.148;8.582;2022-09-09T13:25:03;100053.81;;;18.96;63.40
24558;BME280;12726;49.148;8.582;2022-09-09T13:27:56;100045.13;;;18.64;68.34
24558;BME280;12726;49.148;8.582;2022-09-09T13:30:41;100050.28;;;18.70;71.29
24558;BME280;12726;49.148;8.582;2022-09-09T13:33:33;100053.28;;;18.64;70.33
24558;BME280;12726;49.148;8.582;2022-09-09T13:36:29;100043.72;;;18.92;73.13
24558;BME280;12726;49.148;8.582;2022-09-09T13:39:16;100036.56;;;19.16;71.58
24558;BME280;12726;49.148;8.582;2022-09-09T13:42:03;100033.44;;;19.48;69.35
24558;BME280;12726;49.148;8.582;2022-09-09T13:44:52;100025.38;;;19.82;67.94
24558;BME280;12726;49.148;8.582;2022-09-09T13:47:39;100033.00;;;20.24;66.13
24558;BME280;12726;49.148;8.582;2022-09-09T13:50:27;100027.13;;;20.41;65.34
24558;BME280;12726;49.148;8.582;2022-09-09T13:53:13;100015.25;;;20.55;63.98
24558;BME280;12726;49.148;8.582;2022-09-09T13:55:59;100009.06;;;20.74;63.10
24558;BME280;12726;49.148;8.582;2022-09-09T13:58:45;100007.50;;;20.91;63.08
24558;BME280;12726;49.148;8.582;2022-09-09T14:01:32;100001.63;;;20.79;61.71
24558;BME280;12726;49.148;8.582;2022-09-09T14:04:18;99997.53;;;20.77;63.67
24558;BME280;12726;49.148;8.582;2022-09-09T14:07:05;99996.38;;;20.54;62.83
24558;BME280;12726;49.148;8.582;2022-09-09T14:09:50;99987.03;;;20.31;63.80
24558;BME280;12726;49.148;8.582;2022-09-09T14:12:36;99986.72;;;19.99;63.02
24558;BME280;12726;49.148;8.582;2022-09-09T14:15:22;99994.56;;;19.71;65.71
24558;BME280;12726;49.148;8.582;2022-09-09T14:18:11;100001.69;;;19.62;66.68
24558;BME280;12726;49.148;8.582;2022-09-09T14:20:57;100010.78;;;19.52;68.59
24558;BME280;12726;49.148;8.582;2022-09-09T14:23:43;100009.44;;;19.40;70.10
24558;BME280;12726;49.148;8.582;2022-09-09T14:26:28;100024.78;;;19.26;70.95
24558;BME280;12726;49.148;8.582;2022-09-09T14:29:14;100025.31;;;19.28;71.84
24558;BME280;12726;49.148;8.582;2022-09-09T14:31:59;100027.81;;;19.24;74.44
24558;BME280;12726;49.148;8.582;2022-09-09T14:34:47;100037.44;;;18.96;77.04
24558;BME280;12726;49.148;8.582;2022-09-09T14:37:33;100015.56;;;19.06;73.87
24558;BME280;12726;49.148;8.582;2022-09-09T14:40:19;100008.97;;;19.23;74.00
24558;BME280;12726;49.148;8.582;2022-09-09T14:43:05;100000.22;;;19.26;72.39
24558;BME280;12726;49.148;8.582;2022-09-09T14:45:51;100012.16;;;19.50;72.42
24558;BME280;12726;49.148;8.582;2022-09-09T14:48:37;100013.81;;;19.36;69.03
24558;BME280;12726;49.148;8.582;2022-09-09T14:51:26;100004.56;;;19.32;69.49
24558;BME280;12726;49.148;8.582;2022-09-09T14:54:12;100001.84;;;19.32;68.68